sensor_id;sensor_type;location;lat;lon;timestamp;pressure;altitude;pressure_sealevel;temperature;humidity
62592;BME280;48659;41.622;2.276;2023-06-14T00:00:42;99132.32;;;15.03;71.57
62592;BME280;48659;41.622;2.276;2023-06-14T00:03:10;99129.27;;;15.56;70.34
62592;BME280;48659;41.622;2.276;2023-06-14T00:05:38;99129.17;;;15.53;69.85
62592;BME280;48659;41.622;2.276;2023-06-14T00:08:05;99130.35;;;17.06;66.29
62592;BME280;48659;41.622;2.276;2023-06-14T00:10:33;99135.46;;;15.93;69.35
62592;BME280;48659;41.622;2.276;2023-06-14T00:13:00;99133.84;;;15.26;71.08
62592;BME280;48659;41.622;2.276;2023-06-14T00:15:28;99134.59;;;15.27;67.96
62592;BME280;48659;41.622;2.276;2023-06-14T00:17:55;99131.13;;;17.33;63.33
62592;BME280;48659;41.622;2.276;2023-06-14T00:20:23;99129.44;;;17.69;62.21
62592;BME280;48659;41.622;2.276;2023-06-14T00:22:52;99129.68;;;17.75;62.10
62592;BME280;48659;41.622;2.276;2023-06-14T00:25:19;99130.16;;;16.14;65.23
62592;BME280;48659;41.622;2.276;2023-06-14T00:27:47;99131.59;;;17.76;61.47
62592;BME280;48659;41.622;2.276;2023-06-14T00:30:15;99134.40;;;16.12;66.34
62592;BME280;48659;41.622;2.276;2023-06-14T00:32:43;99131.64;;;16.66;62.29
62592;BME280;48659;41.622;2.276;2023-06-14T00:35:10;99131.39;;;16.58;65.90
62592;BME280;48659;41.622;2.276;2023-06-14T00:37:38;99125.74;;;16.10;63.06
62592;BME280;48659;41.622;2.276;2023-06-14T00:43:21;99122.62;;;16.08;60.41
62592;BME280;48659;41.622;2.276;2023-06-14T00:45:48;99124.74;;;15.25;65.47
62592;BME280;48659;41.622;2.276;2023-06-14T00:48:16;99122.53;;;15.95;64.74
62592;BME280;48659;41.622;2.276;2023-06-14T00:50:44;99117.07;;;16.48;62.58
62592;BME280;48659;41.622;2.276;2023-06-14T00:53:12;99115.93;;;18.40;59.27
62592;BME280;48659;41.622;2.276;2023-06-14T00:55:40;99113.58;;;16.71;62.74
62592;BME280;48659;41.622;2.276;2023-06-14T00:58:09;99115.65;;;16.64;64.39
62592;BME280;48659;41.622;2.276;2023-06-14T01:00:37;99113.79;;;16.95;62.56
62592;BME280;48659;41.622;2.276;2023-06-14T01:03:04;99118.46;;;17.00;63.37
62592;BME280;48659;41.622;2.276;2023-06-14T01:05:37;99117.30;;;17.24;62.67
62592;BME280;48659;41.622;2.276;2023-06-14T01:08:14;99114.94;;;17.38;61.35
62592;BME280;48659;41.622;2.276;2023-06-14T01:10:50;99116.57;;;18.46;58.47
62592;BME280;48659;41.622;2.276;2023-06-14T01:13:21;99114.05;;;17.57;60.31
62592;BME280;48659;41.622;2.276;2023-06-14T01:15:51;99112.85;;;17.71;59.27
62592;BME280;48659;41.622;2.276;2023-06-14T01:18:19;99110.81;;;17.18;63.10
62592;BME280;48659;41.622;2.276;2023-06-14T01:20:47;99108.81;;;16.93;63.65
62592;BME280;48659;41.622;2.276;2023-06-14T01:23:14;99114.40;;;15.80;66.52
62592;BME280;48659;41.622;2.276;2023-06-14T01:25:42;99114.28;;;15.48;68.00
62592;BME280;48659;41.622;2.276;2023-06-14T01:28:10;99113.61;;;15.41;68.74
62592;BME280;48659;41.622;2.276;2023-06-14T01:30:39;99113.61;;;15.62;69.00
62592;BME280;48659;41.622;2.276;2023-06-14T01:33:07;99114.84;;;15.62;70.40
62592;BME280;48659;41.622;2.276;2023-06-14T01:35:37;99113.00;;;16.46;66.65
62592;BME280;48659;41.622;2.276;2023-06-14T01:38:06;99116.84;;;15.41;68.17
62592;BME280;48659;41.622;2.276;2023-06-14T01:40:35;99116.14;;;15.28;68.82
62592;BME280;48659;41.622;2.276;2023-06-14T01:43:04;99115.28;;;15.10;71.80
62592;BME280;48659;41.622;2.276;2023-06-14T01:45:33;99116.49;;;16.12;67.45
62592;BME280;48659;41.622;2.276;2023-06-14T01:48:02;99115.23;;;16.50;65.93
62592;BME280;48659;41.622;2.276;2023-06-14T01:50:30;99110.19;;;16.81;63.22
62592;BME280;48659;41.622;2.276;2023-06-14T01:52:58;99111.07;;;17.51;61.35
62592;BME280;48659;41.622;2.276;2023-06-14T01:55:25;99119.61;;;15.75;65.76
62592;BME280;48659;41.622;2.276;2023-06-14T01:57:54;99116.95;;;16.14;65.66
62592;BME280;48659;41.622;2.276;2023-06-14T02:00:21;99110.84;;;16.96;62.29
62592;BME280;48659;41.622;2.276;2023-06-14T02:02:49;99116.33;;;18.09;59.08
62592;BME280;48659;41.622;2.276;2023-06-14T02:05:17;99111.53;;;17.33;61.19
62592;BME280;48659;41.622;2.276;2023-06-14T02:07:45;99118.55;;;17.21;59.80
62592;BME280;48659;41.622;2.276;2023-06-14T02:10:12;99114.70;;;18.84;56.62
62592;BME280;48659;41.622;2.276;2023-06-14T02:12:40;99111.25;;;17.19;61.31
62592;BME280;48659;41.622;2.276;2023-06-14T02:15:09;99111.60;;;16.14;64.34
62592;BME280;48659;41.622;2.276;2023-06-14T02:17:36;99109.14;;;16.50;63.64
62592;BME280;48659;41.622;2.276;2023-06-14T02:20:05;99109.44;;;17.58;60.53
62592;BME280;48659;41.622;2.276;2023-06-14T02:22:32;99104.26;;;18.36;57.59
62592;BME280;48659;41.622;2.276;2023-06-14T02:25:00;99107.44;;;17.58;59.71
62592;BME280;48659;41.622;2.276;2023-06-14T02:27:27;99108.61;;;18.04;59.73
62592;BME280;48659;41.622;2.276;2023-06-14T02:29:54;99110.24;;;16.42;63.16
62592;BME280;48659;41.622;2.276;2023-06-14T02:32:22;99114.05;;;15.87;66.06
62592;BME280;48659;41.622;2.276;2023-06-14T02:34:49;99116.80;;;18.03;60.98
62592;BME280;48659;41.622;2.276;2023-06-14T02:37:16;99116.04;;;18.70;57.81
62592;BME280;48659;41.622;2.276;2023-06-14T02:39:43;99117.12;;;19.21;55.66
62592;BME280;48659;41.622;2.276;2023-06-14T02:42:11;99117.39;;;19.11;54.76
62592;BME280;48659;41.622;2.276;2023-06-14T02:44:39;99114.97;;;18.83;54.78
62592;BME280;48659;41.622;2.276;2023-06-14T02:47:06;99110.23;;;19.63;53.41
62592;BME280;48659;41.622;2.276;2023-06-14T02:49:34;99107.89;;;20.08;52.24
62592;BME280;48659;41.622;2.276;2023-06-14T02:52:03;99120.68;;;17.92;56.72
62592;BME280;48659;41.622;2.276;2023-06-14T02:54:30;99118.00;;;17.83;57.88
62592;BME280;48659;41.622;2.276;2023-06-14T02:56:57;99120.77;;;16.12;61.75
62592;BME280;48659;41.622;2.276;2023-06-14T02:59:24;99119.55;;;16.98;60.64
62592;BME280;48659;41.622;2.276;2023-06-14T03:01:51;99128.93;;;17.57;58.56
62592;BME280;48659;41.622;2.276;2023-06-14T03:04:19;99130.78;;;17.90;58.08
62592;BME280;48659;41.622;2.276;2023-06-14T03:06:47;99128.98;;;16.33;61.91
62592;BME280;48659;41.622;2.276;2023-06-14T03:09:14;99128.33;;;17.60;59.73
62592;BME280;48659;41.622;2.276;2023-06-14T03:11:42;99131.02;;;17.35;60.80
62592;BME280;48659;41.622;2.276;2023-06-14T03:14:09;99133.47;;;18.71;56.70
62592;BME280;48659;41.622;2.276;2023-06-14T03:16:37;99136.59;;;18.93;55.83
62592;BME280;48659;41.622;2.276;2023-06-14T03:19:04;99133.96;;;19.48;55.07
62592;BME280;48659;41.622;2.276;2023-06-14T03:21:31;99135.95;;;19.93;53.87
62592;BME280;48659;41.622;2.276;2023-06-14T03:23:58;99142.83;;;19.51;54.84
62592;BME280;48659;41.622;2.276;2023-06-14T03:26:25;99147.72;;;20.00;53.80
62592;BME280;48659;41.622;2.276;2023-06-14T03:28:52;99148.04;;;19.93;53.02
62592;BME280;48659;41.622;2.276;2023-06-14T03:31:20;99150.63;;;20.08;52.28
62592;BME280;48659;41.622;2.276;2023-06-14T03:33:47;99155.90;;;19.69;52.75
62592;BME280;48659;41.622;2.276;2023-06-14T03:36:15;99158.08;;;20.17;52.05
62592;BME280;48659;41.622;2.276;2023-06-14T03:38:42;99156.92;;;19.50;52.37
62592;BME280;48659;41.622;2.276;2023-06-14T03:41:10;99158.95;;;19.66;52.41
62592;BME280;48659;41.622;2.276;2023-06-14T03:43:37;99156.47;;;20.44;51.70
62592;BME280;48659;41.622;2.276;2023-06-14T03:46:05;99158.15;;;20.41;51.61
62592;BME280;48659;41.622;2.276;2023-06-14T03:48:33;99159.58;;;20.15;51.97
62592;BME280;48659;41.622;2.276;2023-06-14T03:51:00;99161.02;;;19.97;52.26
62592;BME280;48659;41.622;2.276;2023-06-14T03:53:28;99160.19;;;19.41;53.25
62592;BME280;48659;41.622;2.276;2023-06-14T03:55:56;99155.82;;;20.04;52.44
62592;BME280;48659;41.622;2.276;2023-06-14T03:58:23;99153.62;;;20.10;52.51
62592;BME280;48659;41.622;2.276;2023-06-14T04:00:51;99154.52;;;20.40;51.41
62592;BME280;48659;41.622;2.276;2023-06-14T04:03:18;99157.47;;;20.39;51.95
62592;BME280;48659;41.622;2.276;2023-06-14T04:05:45;99157.31;;;20.36;51.54
62592;BME280;48659;41.622;2.276;2023-06-14T04:08:12;99158.59;;;20.12;52.29
62592;BME280;48659;41.622;2.276;2023-06-14T04:10:41;99162.09;;;19.78;52.52
62592;BME280;48659;41.622;2.276;2023-06-14T04:13:08;99168.10;;;19.99;53.47
62592;BME280;48659;41.622;2.276;2023-06-14T04:15:35;99171.92;;;19.88;53.55
62592;BME280;48659;41.622;2.276;2023-06-14T04:18:03;99179.47;;;18.81;55.98
62592;BME280;48659;41.622;2.276;2023-06-14T04:20:30;99175.31;;;19.64;54.28
62592;BME280;48659;41.622;2.276;2023-06-14T04:23:10;99185.86;;;18.54;56.53
62592;BME280;48659;41.622;2.276;2023-06-14T04:25:37;99187.38;;;19.11;55.62
62592;BME280;48659;41.622;2.276;2023-06-14T04:28:05;99187.03;;;19.54;54.67
62592;BME280;48659;41.622;2.276;2023-06-14T04:30:33;99187.81;;;19.00;55.48
62592;BME280;48659;41.622;2.276;2023-06-14T04:33:00;99190.39;;;16.65;62.53
62592;BME280;48659;41.622;2.276;2023-06-14T04:35:27;99193.72;;;15.42;67.85
62592;BME280;48659;41.622;2.276;2023-06-14T04:37:55;99194.96;;;16.01;65.38
62592;BME280;48659;41.622;2.276;2023-06-14T04:40:22;99195.29;;;16.66;64.47
62592;BME280;48659;41.622;2.276;2023-06-14T04:42:49;99199.10;;;16.49;66.30
62592;BME280;48659;41.622;2.276;2023-06-14T04:45:17;99198.25;;;18.11;61.78
62592;BME280;48659;41.622;2.276;2023-06-14T04:47:44;99201.76;;;18.43;58.24
62592;BME280;48659;41.622;2.276;2023-06-14T04:50:11;99203.74;;;19.55;56.29
62592;BME280;48659;41.622;2.276;2023-06-14T04:52:39;99197.08;;;19.88;55.09
62592;BME280;48659;41.622;2.276;2023-06-14T04:55:07;99199.15;;;19.32;55.58
62592;BME280;48659;41.622;2.276;2023-06-14T04:57:35;99201.64;;;20.31;53.88
62592;BME280;48659;41.622;2.276;2023-06-14T05:00:03;99208.26;;;19.88;54.49
62592;BME280;48659;41.622;2.276;2023-06-14T05:02:30;99212.70;;;20.85;53.34
62592;BME280;48659;41.622;2.276;2023-06-14T05:04:57;99218.71;;;20.36;53.43
62592;BME280;48659;41.622;2.276;2023-06-14T05:07:24;99223.28;;;20.50;52.79
62592;BME280;48659;41.622;2.276;2023-06-14T05:09:51;99224.30;;;20.39;52.85
62592;BME280;48659;41.622;2.276;2023-06-14T05:12:19;99222.90;;;20.46;52.86
62592;BME280;48659;41.622;2.276;2023-06-14T05:14:46;99220.29;;;20.85;52.19
62592;BME280;48659;41.622;2.276;2023-06-14T05:17:13;99220.75;;;20.57;53.05
62592;BME280;48659;41.622;2.276;2023-06-14T05:19:40;99222.50;;;20.33;52.63
62592;BME280;48659;41.622;2.276;2023-06-14T05:22:07;99224.08;;;21.14;51.83
62592;BME280;48659;41.622;2.276;2023-06-14T05:24:36;99226.30;;;21.02;52.47
62592;BME280;48659;41.622;2.276;2023-06-14T05:27:04;99224.69;;;20.51;53.30
62592;BME280;48659;41.622;2.276;2023-06-14T05:29:32;99221.40;;;20.86;52.62
62592;BME280;48659;41.622;2.276;2023-06-14T05:32:00;99219.20;;;20.99;52.41
62592;BME280;48659;41.622;2.276;2023-06-14T05:34:28;99223.40;;;21.09;51.69
62592;BME280;48659;41.622;2.276;2023-06-14T05:36:55;99229.70;;;20.95;51.23
62592;BME280;48659;41.622;2.276;2023-06-14T05:39:23;99234.47;;;20.84;51.79
62592;BME280;48659;41.622;2.276;2023-06-14T05:41:50;99234.94;;;20.97;51.07
62592;BME280;48659;41.622;2.276;2023-06-14T05:44:17;99233.63;;;21.30;50.87
62592;BME280;48659;41.622;2.276;2023-06-14T05:46:44;99231.42;;;20.72;51.08
62592;BME280;48659;41.622;2.276;2023-06-14T05:49:12;99234.11;;;20.85;52.04
62592;BME280;48659;41.622;2.276;2023-06-14T05:51:39;99238.18;;;20.65;52.20
62592;BME280;48659;41.622;2.276;2023-06-14T05:54:06;99237.48;;;21.46;50.95
62592;BME280;48659;41.622;2.276;2023-06-14T05:56:33;99235.34;;;21.65;50.50
62592;BME280;48659;41.622;2.276;2023-06-14T05:59:01;99230.43;;;21.76;50.00
62592;BME280;48659;41.622;2.276;2023-06-14T06:01:28;99231.47;;;21.97;49.66
62592;BME280;48659;41.622;2.276;2023-06-14T06:03:56;99232.61;;;22.04;48.74
62592;BME280;48659;41.622;2.276;2023-06-14T06:06:23;99233.97;;;22.47;47.57
62592;BME280;48659;41.622;2.276;2023-06-14T06:08:50;99228.88;;;22.88;46.89
62592;BME280;48659;41.622;2.276;2023-06-14T06:11:18;99228.47;;;23.27;46.21
62592;BME280;48659;41.622;2.276;2023-06-14T06:13:45;99234.92;;;22.75;45.82
62592;BME280;48659;41.622;2.276;2023-06-14T06:16:13;99239.38;;;22.69;48.55
62592;BME280;48659;41.622;2.276;2023-06-14T06:18:45;99246.67;;;22.32;46.56
62592;BME280;48659;41.622;2.276;2023-06-14T06:21:13;99248.04;;;22.49;46.39
62592;BME280;48659;41.622;2.276;2023-06-14T06:23:44;99251.95;;;22.30;45.27
62592;BME280;48659;41.622;2.276;2023-06-14T06:26:12;99254.94;;;23.58;44.72
62592;BME280;48659;41.622;2.276;2023-06-14T06:28:40;99250.16;;;22.66;45.56
62592;BME280;48659;41.622;2.276;2023-06-14T06:31:08;99251.63;;;22.72;46.17
62592;BME280;48659;41.622;2.276;2023-06-14T06:33:43;99250.20;;;22.58;46.65
62592;BME280;48659;41.622;2.276;2023-06-14T06:36:10;99254.18;;;21.84;47.44
62592;BME280;48659;41.622;2.276;2023-06-14T06:38:45;99259.24;;;21.40;47.45
62592;BME280;48659;41.622;2.276;2023-06-14T06:41:13;99264.15;;;21.87;47.28
62592;BME280;48659;41.622;2.276;2023-06-14T06:43:41;99268.22;;;22.70;45.65
62592;BME280;48659;41.622;2.276;2023-06-14T06:46:08;99275.94;;;22.65;45.36
62592;BME280;48659;41.622;2.276;2023-06-14T06:48:44;99273.96;;;22.90;45.26
62592;BME280;48659;41.622;2.276;2023-06-14T06:51:12;99266.41;;;22.09;46.56
62592;BME280;48659;41.622;2.276;2023-06-14T06:53:41;99269.32;;;22.37;46.47
62592;BME280;48659;41.622;2.276;2023-06-14T06:56:09;99275.06;;;22.95;46.61
62592;BME280;48659;41.622;2.276;2023-06-14T06:58:44;99275.95;;;22.24;46.89
62592;BME280;48659;41.622;2.276;2023-06-14T07:01:12;99278.28;;;22.89;47.55
62592;BME280;48659;41.622;2.276;2023-06-14T07:03:44;99284.95;;;21.14;49.54
62592;BME280;48659;41.622;2.276;2023-06-14T07:06:12;99283.47;;;22.57;47.36
62592;BME280;48659;41.622;2.276;2023-06-14T07:08:43;99282.77;;;22.43;46.26
62592;BME280;48659;41.622;2.276;2023-06-14T07:11:12;99280.43;;;22.34;46.66
62592;BME280;48659;41.622;2.276;2023-06-14T07:13:40;99284.45;;;22.80;45.69
62592;BME280;48659;41.622;2.276;2023-06-14T07:16:07;99288.00;;;22.84;45.82
62592;BME280;48659;41.622;2.276;2023-06-14T07:18:49;99290.39;;;23.63;44.68
62592;BME280;48659;41.622;2.276;2023-06-14T07:21:16;99291.65;;;23.78;43.97
62592;BME280;48659;41.622;2.276;2023-06-14T07:23:45;99291.09;;;23.26;43.54
62592;BME280;48659;41.622;2.276;2023-06-14T07:26:12;99285.80;;;23.95;43.02
62592;BME280;48659;41.622;2.276;2023-06-14T07:28:44;99294.50;;;23.26;44.27
62592;BME280;48659;41.622;2.276;2023-06-14T07:31:12;99300.66;;;23.87;43.36
62592;BME280;48659;41.622;2.276;2023-06-14T07:33:45;99307.51;;;23.56;44.03
62592;BME280;48659;41.622;2.276;2023-06-14T07:36:12;99313.17;;;23.81;43.69
62592;BME280;48659;41.622;2.276;2023-06-14T07:38:44;99314.21;;;22.89;43.80
62592;BME280;48659;41.622;2.276;2023-06-14T07:41:12;99315.01;;;23.64;43.76
62592;BME280;48659;41.622;2.276;2023-06-14T07:43:45;99313.23;;;23.39;44.31
62592;BME280;48659;41.622;2.276;2023-06-14T07:46:12;99317.40;;;23.72;45.44
62592;BME280;48659;41.622;2.276;2023-06-14T07:48:41;99314.03;;;23.09;45.54
62592;BME280;48659;41.622;2.276;2023-06-14T07:51:10;99310.40;;;23.15;45.43
62592;BME280;48659;41.622;2.276;2023-06-14T07:53:45;99306.00;;;23.60;44.55
62592;BME280;48659;41.622;2.276;2023-06-14T07:56:12;99305.97;;;24.12;44.51
62592;BME280;48659;41.622;2.276;2023-06-14T07:58:42;99309.28;;;24.21;43.32
62592;BME280;48659;41.622;2.276;2023-06-14T08:01:09;99310.80;;;23.52;44.39
62592;BME280;48659;41.622;2.276;2023-06-14T08:03:37;99303.83;;;23.64;43.94
62592;BME280;48659;41.622;2.276;2023-06-14T08:06:05;99301.97;;;23.19;43.52
62592;BME280;48659;41.622;2.276;2023-06-14T08:08:34;99296.46;;;23.77;43.84
62592;BME280;48659;41.622;2.276;2023-06-14T08:11:02;99287.47;;;23.87;42.76
62592;BME280;48659;41.622;2.276;2023-06-14T08:13:29;99292.99;;;24.28;43.31
62592;BME280;48659;41.622;2.276;2023-06-14T08:15:57;99299.07;;;24.33;42.67
62592;BME280;48659;41.622;2.276;2023-06-14T08:18:24;99300.32;;;24.85;42.42
62592;BME280;48659;41.622;2.276;2023-06-14T08:20:52;99300.15;;;23.21;43.69
62592;BME280;48659;41.622;2.276;2023-06-14T08:23:19;99292.90;;;25.00;42.48
62592;BME280;48659;41.622;2.276;2023-06-14T08:25:47;99293.61;;;24.22;42.82
62592;BME280;48659;41.622;2.276;2023-06-14T08:28:15;99296.77;;;24.64;42.64
62592;BME280;48659;41.622;2.276;2023-06-14T08:30:44;99296.08;;;24.90;40.80
62592;BME280;48659;41.622;2.276;2023-06-14T08:33:11;99296.58;;;24.95;40.81
62592;BME280;48659;41.622;2.276;2023-06-14T08:35:43;99295.47;;;24.89;41.47
62592;BME280;48659;41.622;2.276;2023-06-14T08:38:10;99293.13;;;25.18;41.38
62592;BME280;48659;41.622;2.276;2023-06-14T08:40:39;99294.26;;;24.42;43.18
62592;BME280;48659;41.622;2.276;2023-06-14T08:43:07;99291.72;;;24.74;43.60
62592;BME280;48659;41.622;2.276;2023-06-14T08:45:50;99290.56;;;24.70;42.66
62592;BME280;48659;41.622;2.276;2023-06-14T08:48:22;99288.34;;;24.36;43.63
62592;BME280;48659;41.622;2.276;2023-06-14T08:50:54;99288.29;;;25.29;41.07
62592;BME280;48659;41.622;2.276;2023-06-14T08:53:22;99291.51;;;25.20;42.13
62592;BME280;48659;41.622;2.276;2023-06-14T08:55:50;99296.35;;;25.06;40.34
62592;BME280;48659;41.622;2.276;2023-06-14T08:58:18;99298.86;;;26.49;39.74
62592;BME280;48659;41.622;2.276;2023-06-14T09:00:46;99302.11;;;26.32;39.48
62592;BME280;48659;41.622;2.276;2023-06-14T09:03:13;99306.34;;;25.67;40.40
62592;BME280;48659;41.622;2.276;2023-06-14T09:05:45;99307.16;;;25.56;40.17
62592;BME280;48659;41.622;2.276;2023-06-14T09:08:13;99315.36;;;26.12;40.47
62592;BME280;48659;41.622;2.276;2023-06-14T09:10:47;99315.84;;;25.75;39.93
62592;BME280;48659;41.622;2.276;2023-06-14T09:13:14;99316.55;;;26.43;39.55
62592;BME280;48659;41.622;2.276;2023-06-14T09:15:45;99315.09;;;25.81;39.98
62592;BME280;48659;41.622;2.276;2023-06-14T09:18:12;99315.04;;;26.39;39.05
62592;BME280;48659;41.622;2.276;2023-06-14T09:20:48;99312.79;;;26.26;38.96
62592;BME280;48659;41.622;2.276;2023-06-14T09:23:20;99310.94;;;26.40;38.38
62592;BME280;48659;41.622;2.276;2023-06-14T09:25:48;99310.86;;;25.98;39.23
62592;BME280;48659;41.622;2.276;2023-06-14T09:28:16;99314.47;;;25.37;40.37
62592;BME280;48659;41.622;2.276;2023-06-14T09:30:44;99313.07;;;26.48;39.00
62592;BME280;48659;41.622;2.276;2023-06-14T09:33:17;99314.95;;;27.00;38.50
62592;BME280;48659;41.622;2.276;2023-06-14T09:35:46;99318.16;;;25.80;38.17
62592;BME280;48659;41.622;2.276;2023-06-14T09:38:15;99324.02;;;24.30;41.12
62592;BME280;48659;41.622;2.276;2023-06-14T09:40:46;99319.57;;;25.14;38.54
62592;BME280;48659;41.622;2.276;2023-06-14T09:43:14;99320.35;;;25.93;38.08
62592;BME280;48659;41.622;2.276;2023-06-14T09:45:43;99322.17;;;24.57;40.74
62592;BME280;48659;41.622;2.276;2023-06-14T09:48:11;99323.10;;;25.19;40.35
62592;BME280;48659;41.622;2.276;2023-06-14T09:50:46;99319.01;;;25.62;38.98
62592;BME280;48659;41.622;2.276;2023-06-14T09:53:20;99319.42;;;24.98;38.53
62592;BME280;48659;41.622;2.276;2023-06-14T09:55:50;99319.87;;;24.84;37.87
62592;BME280;48659;41.622;2.276;2023-06-14T09:58:20;99324.05;;;22.77;38.46
62592;BME280;48659;41.622;2.276;2023-06-14T10:00:52;99313.61;;;23.73;38.35
62592;BME280;48659;41.622;2.276;2023-06-14T10:03:25;99311.86;;;26.34;35.47
62592;BME280;48659;41.622;2.276;2023-06-14T10:05:56;99317.19;;;25.38;37.14
62592;BME280;48659;41.622;2.276;2023-06-14T10:08:27;99319.11;;;25.36;37.92
62592;BME280;48659;41.622;2.276;2023-06-14T10:10:58;99327.14;;;24.89;36.48
62592;BME280;48659;41.622;2.276;2023-06-14T10:13:27;99334.74;;;23.89;39.42
62592;BME280;48659;41.622;2.276;2023-06-14T10:16:04;99332.58;;;24.56;37.93
62592;BME280;48659;41.622;2.276;2023-06-14T10:18:44;99330.32;;;24.36;39.13
62592;BME280;48659;41.622;2.276;2023-06-14T10:24:06;99325.95;;;26.57;36.69
62592;BME280;48659;41.622;2.276;2023-06-14T10:26:51;99321.44;;;27.50;34.95
62592;BME280;48659;41.622;2.276;2023-06-14T10:29:19;99322.15;;;27.68;34.19
62592;BME280;48659;41.622;2.276;2023-06-14T10:31:48;99317.28;;;26.95;34.77
62592;BME280;48659;41.622;2.276;2023-06-14T10:34:22;99318.78;;;26.94;35.86
62592;BME280;48659;41.622;2.276;2023-06-14T10:37:11;99325.34;;;26.56;34.87
62592;BME280;48659;41.622;2.276;2023-06-14T10:39:41;99327.93;;;27.80;32.95
62592;BME280;48659;41.622;2.276;2023-06-14T10:42:09;99328.27;;;27.55;33.23
62592;BME280;48659;41.622;2.276;2023-06-14T10:44:39;99326.81;;;27.92;33.39
62592;BME280;48659;41.622;2.276;2023-06-14T10:47:09;99325.99;;;28.56;32.36
62592;BME280;48659;41.622;2.276;2023-06-14T10:49:40;99333.39;;;28.09;32.62
62592;BME280;48659;41.622;2.276;2023-06-14T10:52:09;99328.16;;;27.64;32.51
62592;BME280;48659;41.622;2.276;2023-06-14T10:54:37;99328.76;;;28.16;32.54
62592;BME280;48659;41.622;2.276;2023-06-14T10:57:07;99327.46;;;25.80;34.37
62592;BME280;48659;41.622;2.276;2023-06-14T10:59:34;99328.70;;;28.31;32.34
62592;BME280;48659;41.622;2.276;2023-06-14T11:02:31;99329.48;;;27.27;34.17
62592;BME280;48659;41.622;2.276;2023-06-14T11:05:09;99330.37;;;27.22;33.12
62592;BME280;48659;41.622;2.276;2023-06-14T11:07:58;99335.07;;;26.46;34.10
62592;BME280;48659;41.622;2.276;2023-06-14T11:10:47;99333.91;;;27.18;33.64
62592;BME280;48659;41.622;2.276;2023-06-14T11:13:16;99326.51;;;27.58;32.80
62592;BME280;48659;41.622;2.276;2023-06-14T11:15:47;99331.89;;;26.83;34.48
62592;BME280;48659;41.622;2.276;2023-06-14T11:18:14;99336.51;;;26.14;35.67
62592;BME280;48659;41.622;2.276;2023-06-14T11:20:47;99332.56;;;25.70;36.11
62592;BME280;48659;41.622;2.276;2023-06-14T11:23:15;99331.84;;;27.06;35.01
62592;BME280;48659;41.622;2.276;2023-06-14T11:25:50;99333.60;;;27.90;33.76
62592;BME280;48659;41.622;2.276;2023-06-14T11:28:18;99332.78;;;25.81;36.70
62592;BME280;48659;41.622;2.276;2023-06-14T11:30:45;99324.09;;;25.73;35.77
62592;BME280;48659;41.622;2.276;2023-06-14T11:33:17;99327.64;;;27.75;33.14
62592;BME280;48659;41.622;2.276;2023-06-14T11:35:45;99323.65;;;25.64;34.88
62592;BME280;48659;41.622;2.276;2023-06-14T11:38:13;99324.88;;;25.72;35.11
62592;BME280;48659;41.622;2.276;2023-06-14T11:40:43;99319.62;;;26.36;34.46
62592;BME280;48659;41.622;2.276;2023-06-14T11:43:11;99323.44;;;26.60;33.64
62592;BME280;48659;41.622;2.276;2023-06-14T11:45:39;99319.43;;;28.16;31.82
62592;BME280;48659;41.622;2.276;2023-06-14T11:48:06;99318.99;;;26.19;35.22
62592;BME280;48659;41.622;2.276;2023-06-14T11:50:38;99323.42;;;25.36;35.53
62592;BME280;48659;41.622;2.276;2023-06-14T11:53:06;99316.21;;;26.81;32.87
62592;BME280;48659;41.622;2.276;2023-06-14T11:55:43;99310.79;;;26.30;33.81
62592;BME280;48659;41.622;2.276;2023-06-14T11:58:10;99309.72;;;25.85;34.83
62592;BME280;48659;41.622;2.276;2023-06-14T12:00:43;99312.50;;;26.00;34.46
62592;BME280;48659;41.622;2.276;2023-06-14T12:03:11;99310.91;;;27.83;32.24
62592;BME280;48659;41.622;2.276;2023-06-14T12:05:44;99308.38;;;27.60;31.32
62592;BME280;48659;41.622;2.276;2023-06-14T12:08:12;99310.58;;;27.70;31.58
62592;BME280;48659;41.622;2.276;2023-06-14T12:10:45;99314.88;;;27.13;31.38
62592;BME280;48659;41.622;2.276;2023-06-14T12:13:13;99304.41;;;29.51;29.06
62592;BME280;48659;41.622;2.276;2023-06-14T12:15:44;99298.89;;;28.92;29.26
62592;BME280;48659;41.622;2.276;2023-06-14T12:18:12;99304.42;;;27.09;31.83
62592;BME280;48659;41.622;2.276;2023-06-14T12:20:49;99307.24;;;27.42;30.81
62592;BME280;48659;41.622;2.276;2023-06-14T12:23:17;99307.69;;;28.03;30.61
62592;BME280;48659;41.622;2.276;2023-06-14T12:25:45;99307.28;;;27.00;31.37
62592;BME280;48659;41.622;2.276;2023-06-14T12:28:12;99299.22;;;26.96;34.31
62592;BME280;48659;41.622;2.276;2023-06-14T12:30:44;99293.27;;;26.73;33.83
62592;BME280;48659;41.622;2.276;2023-06-14T12:33:12;99295.01;;;27.68;32.67
62592;BME280;48659;41.622;2.276;2023-06-14T12:35:40;99292.84;;;26.12;34.61
62592;BME280;48659;41.622;2.276;2023-06-14T12:38:07;99296.33;;;26.56;34.47
62592;BME280;48659;41.622;2.276;2023-06-14T12:40:36;99301.89;;;27.80;33.67
62592;BME280;48659;41.622;2.276;2023-06-14T12:43:05;99313.54;;;27.04;33.60
62592;BME280;48659;41.622;2.276;2023-06-14T12:45:32;99331.76;;;25.66;35.67
62592;BME280;48659;41.622;2.276;2023-06-14T12:47:59;99336.24;;;24.65;38.18
62592;BME280;48659;41.622;2.276;2023-06-14T12:50:26;99336.04;;;25.63;36.56
62592;BME280;48659;41.622;2.276;2023-06-14T12:52:54;99327.82;;;25.28;39.72
62592;BME280;48659;41.622;2.276;2023-06-14T12:55:22;99317.72;;;25.48;41.42
62592;BME280;48659;41.622;2.276;2023-06-14T12:57:50;99312.90;;;24.78;42.76
62592;BME280;48659;41.622;2.276;2023-06-14T13:00:18;99312.34;;;24.19;43.08
62592;BME280;48659;41.622;2.276;2023-06-14T13:02:47;99312.74;;;26.84;39.47
62592;BME280;48659;41.622;2.276;2023-06-14T13:05:16;99315.10;;;26.58;39.42
62592;BME280;48659;41.622;2.276;2023-06-14T13:07:44;99322.39;;;24.85;41.10
62592;BME280;48659;41.622;2.276;2023-06-14T13:10:11;99337.60;;;24.06;42.64
62592;BME280;48659;41.622;2.276;2023-06-14T13:12:44;99342.11;;;23.28;45.18
62592;BME280;48659;41.622;2.276;2023-06-14T13:15:13;99341.70;;;24.06;43.19